Time;durP1;ratioP1;P1;durP2;ratioP2;P2;SDS_P1;SDS_P2;PMS_P1;PMS_P2;Temp;Humidity;BMP_temperature;BMP_pressure;BME280_temperature;BME280_humidity;BME280_pressure;Samples;Min_cycle;Max_cycle;Signal;HPM_P1;HPM_P2
2021/08/15 00:02:21;;;;;;;34.70;28.50;;;16.70;99.90;;;;;;5072681;28;20444;-67
2021/08/15 00:04:48;;;;;;;38.73;30.23;;;16.70;99.90;;;;;;5072677;28;20475;-68
2021/08/15 00:07:18;;;;;;;32.10;28.70;;;16.70;99.90;;;;;;5072830;28;20443;-67
2021/08/15 00:09:44;;;;;;;36.30;26.93;;;16.60;99.90;;;;;;5072664;28;21158;-66
2021/08/15 00:12:11;;;;;;;31.57;28.13;;;16.60;99.90;;;;;;5063423;28;20501;-67
2021/08/15 00:14:38;;;;;;;43.20;30.50;;;16.60;99.90;;;;;;5072900;28;20463;-66
2021/08/15 00:17:05;;;;;;;38.20;27.93;;;16.50;99.90;;;;;;5072968;28;20439;-67
2021/08/15 00:19:31;;;;;;;35.07;28.30;;;16.50;99.90;;;;;;5069733;28;20467;-67
2021/08/15 00:21:58;;;;;;;34.77;27.87;;;16.50;99.90;;;;;;5052606;28;20447;-66
2021/08/15 00:24:26;;;;;;;35.50;29.27;;;16.40;99.90;;;;;;5052780;28;20470;-68
2021/08/15 00:26:53;;;;;;;34.37;28.97;;;16.40;99.90;;;;;;5052587;28;20455;-67
2021/08/15 00:29:20;;;;;;;34.33;28.47;;;16.40;99.90;;;;;;5053394;28;20944;-68
2021/08/15 00:31:47;;;;;;;38.57;28.07;;;16.40;99.90;;;;;;5072232;28;20479;-67
2021/08/15 00:34:13;;;;;;;38.70;28.03;;;16.40;99.90;;;;;;5072592;28;20462;-67
2021/08/15 00:36:40;;;;;;;42.27;31.57;;;16.40;99.90;;;;;;5072584;28;20439;-68
2021/08/15 00:39:07;;;;;;;35.53;25.07;;;16.40;99.90;;;;;;5059297;28;20448;-66
2021/08/15 00:41:35;;;;;;;28.00;25.10;;;16.30;99.90;;;;;;5052340;28;20441;-67
2021/08/15 00:44:02;;;;;;;27.50;24.17;;;16.30;99.90;;;;;;5052304;28;20472;-67
2021/08/15 00:46:30;;;;;;;27.57;22.90;;;16.30;99.90;;;;;;5052316;28;20539;-66
2021/08/15 00:48:57;;;;;;;33.30;24.77;;;16.30;99.90;;;;;;5063429;28;20864;-67
2021/08/15 00:51:24;;;;;;;35.33;25.63;;;16.30;99.90;;;;;;5071995;28;20475;-67
2021/08/15 00:53:51;;;;;;;38.00;30.20;;;16.30;99.90;;;;;;5072006;28;20464;-67
2021/08/15 00:56:18;;;;;;;30.33;24.53;;;16.30;99.90;;;;;;5072199;28;20819;-67
2021/08/15 00:58:46;;;;;;;34.17;25.80;;;16.30;99.90;;;;;;5062432;28;20455;-67
2021/08/15 01:01:13;;;;;;;30.80;24.27;;;16.30;99.90;;;;;;5051850;28;20436;-67
2021/08/15 01:03:40;;;;;;;29.93;26.53;;;16.30;99.90;;;;;;5052981;28;20448;-67
2021/08/15 01:06:08;;;;;;;34.00;25.40;;;16.30;99.90;;;;;;5051746;28;20479;-67
2021/08/15 01:08:35;;;;;;;34.50;27.93;;;16.30;99.90;;;;;;5059661;28;20497;-67
2021/08/15 01:11:04;;;;;;;35.00;25.83;;;16.30;99.90;;;;;;5071742;28;20475;-67
2021/08/15 01:13:31;;;;;;;37.00;25.77;;;16.30;99.90;;;;;;5071822;28;20444;-67
2021/08/15 01:16:00;;;;;;;33.53;25.27;;;16.30;99.90;;;;;;5071803;28;20443;-67
2021/08/15 01:18:30;;;;;;;39.33;29.83;;;16.30;99.90;;;;;;5065144;28;20451;-68
2021/08/15 01:20:57;;;;;;;29.73;24.87;;;16.30;99.90;;;;;;5051750;28;20444;-68
2021/08/15 01:23:24;;;;;;;30.40;27.20;;;16.30;99.90;;;;;;5070115;28;20450;-67
2021/08/15 01:25:51;;;;;;;38.77;29.73;;;16.20;99.90;;;;;;5071756;28;20446;-67
2021/08/15 01:28:20;;;;;;;28.33;24.50;;;16.30;99.90;;;;;;5066498;28;20436;-68
2021/08/15 01:30:47;;;;;;;35.27;26.17;;;16.30;99.90;;;;;;5051785;28;20444;-67
2021/08/15 01:33:24;;;;;;;31.87;23.67;;;16.30;99.90;;;;;;5051534;28;20493;-67
2021/08/15 01:35:53;;;;;;;31.03;24.57;;;16.30;99.90;;;;;;5071759;28;20476;-66
2021/08/15 01:38:20;;;;;;;27.60;24.30;;;16.30;99.90;;;;;;5066460;28;20476;-67
2021/08/15 01:40:47;;;;;;;32.57;24.10;;;16.30;99.90;;;;;;5051489;28;20448;-67
2021/08/15 01:43:14;;;;;;;27.63;22.60;;;16.40;99.90;;;;;;5051378;28;20443;-67
2021/08/15 01:45:42;;;;;;;30.80;23.43;;;16.30;99.90;;;;;;5051375;28;20467;-66
2021/08/15 01:48:09;;;;;;;24.17;20.53;;;16.30;99.90;;;;;;5054554;28;20440;-67
2021/08/15 01:50:36;;;;;;;29.77;23.20;;;16.30;99.90;;;;;;5071517;28;20439;-67
2021/08/15 01:53:06;;;;;;;24.27;20.60;;;16.30;99.90;;;;;;5071184;28;20479;-67
2021/08/15 01:55:33;;;;;;;27.00;22.60;;;16.30;99.90;;;;;;5071647;28;20471;-67
2021/08/15 01:57:59;;;;;;;26.43;20.80;;;16.30;99.90;;;;;;5069688;28;20862;-67
2021/08/15 02:00:26;;;;;;;30.90;22.10;;;16.30;99.90;;;;;;5051403;28;20479;-67
2021/08/15 02:02:54;;;;;;;28.13;20.50;;;16.20;99.90;;;;;;5068093;28;20443;-66
2021/08/15 02:05:21;;;;;;;31.77;22.37;;;16.20;99.90;;;;;;5071288;28;20475;-66
2021/08/15 02:07:54;;;;;;;28.77;22.27;;;16.20;99.90;;;;;;5071257;28;20443;-68
2021/08/15 02:10:21;;;;;;;28.67;20.93;;;16.30;99.90;;;;;;5051478;28;20522;-68
2021/08/15 02:12:48;;;;;;;27.90;21.17;;;16.30;99.90;;;;;;5051055;28;20480;-68
2021/08/15 02:15:14;;;;;;;22.50;20.00;;;16.30;99.90;;;;;;5051220;28;20460;-67
2021/08/15 02:17:41;;;;;;;23.60;20.47;;;16.20;99.90;;;;;;5053726;28;20963;-67
2021/08/15 02:20:10;;;;;;;24.53;17.77;;;16.30;99.90;;;;;;5070867;28;20788;-67
2021/08/15 02:22:37;;;;;;;29.23;20.97;;;16.30;99.90;;;;;;5055080;28;20443;-67
2021/08/15 02:25:05;;;;;;;26.03;19.30;;;16.30;99.90;;;;;;5060587;28;20482;-66
2021/08/15 02:27:32;;;;;;;28.97;19.77;;;16.30;99.90;;;;;;5074736;28;20455;-66
2021/08/15 02:29:59;;;;;;;22.47;20.03;;;16.30;99.90;;;;;;5074831;28;20932;-67
2021/08/15 02:32:25;;;;;;;21.03;17.97;;;16.30;99.90;;;;;;5074676;28;20483;-67
2021/08/15 02:34:52;;;;;;;23.00;20.47;;;16.30;99.90;;;;;;5070367;28;20823;-66
2021/08/15 02:37:20;;;;;;;24.97;19.77;;;16.20;99.90;;;;;;5054815;28;20467;-66
2021/08/15 02:39:46;;;;;;;28.63;17.43;;;16.20;99.90;;;;;;5054738;28;20447;-66
2021/08/15 02:42:13;;;;;;;24.13;18.73;;;16.20;99.90;;;;;;5055666;28;20444;-67
2021/08/15 02:44:40;;;;;;;23.43;20.73;;;16.20;99.90;;;;;;5054670;28;20460;-66
2021/08/15 02:47:06;;;;;;;25.93;19.20;;;16.20;99.90;;;;;;5055711;28;20455;-66
2021/08/15 02:49:33;;;;;;;21.47;19.50;;;16.10;99.90;;;;;;5059588;28;20941;-67
2021/08/15 02:52:00;;;;;;;21.93;19.27;;;16.10;99.90;;;;;;5054414;28;20899;-67
2021/08/15 02:54:28;;;;;;;26.87;18.70;;;16.10;99.90;;;;;;5054408;28;20460;-67
2021/08/15 02:56:54;;;;;;;23.70;18.87;;;16.00;99.90;;;;;;5060785;28;20859;-68
2021/08/15 02:59:21;;;;;;;27.33;19.40;;;16.00;99.90;;;;;;5060730;28;20937;-67
2021/08/15 03:01:48;;;;;;;28.60;19.13;;;16.00;99.90;;;;;;5054175;28;20809;-66
2021/08/15 03:04:14;;;;;;;30.67;19.43;;;16.00;99.90;;;;;;5054373;28;20472;-68
2021/08/15 03:06:42;;;;;;;23.10;19.83;;;16.00;99.90;;;;;;5068107;28;20446;-66
2021/08/15 03:09:09;;;;;;;21.30;19.10;;;16.00;99.90;;;;;;5074071;28;20486;-66
2021/08/15 03:11:37;;;;;;;22.93;17.87;;;16.00;99.90;;;;;;5073907;28;20439;-67
2021/08/15 03:14:03;;;;;;;24.07;18.20;;;16.00;99.90;;;;;;5074259;28;20467;-67
2021/08/15 03:16:30;;;;;;;20.93;18.73;;;16.00;99.90;;;;;;5057489;28;20445;-66
2021/08/15 03:18:57;;;;;;;23.37;16.27;;;15.90;99.90;;;;;;5054126;28;20444;-67
2021/08/15 03:21:24;;;;;;;28.43;20.07;;;15.90;99.90;;;;;;5053785;28;20444;-67
2021/08/15 03:23:51;;;;;;;25.77;16.73;;;15.90;99.90;;;;;;5053853;28;20470;-67
2021/08/15 03:26:18;;;;;;;23.03;17.83;;;15.90;99.90;;;;;;5054008;28;20448;-67
2021/08/15 03:28:46;;;;;;;22.30;17.40;;;15.90;99.90;;;;;;5071823;28;20448;-66
2021/08/15 03:31:12;;;;;;;23.47;17.77;;;15.90;99.90;;;;;;5070360;28;20443;-66
2021/08/15 03:33:39;;;;;;;26.43;18.10;;;15.90;99.90;;;;;;5061517;28;20483;-67
2021/08/15 03:36:06;;;;;;;30.00;18.93;;;15.80;99.90;;;;;;5062108;28;20470;-67
2021/08/15 03:38:32;;;;;;;20.63;17.07;;;15.90;99.90;;;;;;5072047;28;20455;-67
2021/08/15 03:40:59;;;;;;;16.77;15.03;;;15.90;99.90;;;;;;5069168;28;20444;-67
2021/08/15 03:43:26;;;;;;;22.20;16.30;;;15.90;99.90;;;;;;5064937;28;20436;-67
2021/08/15 03:45:54;;;;;;;24.50;17.57;;;15.90;99.90;;;;;;5073637;28;20964;-67
2021/08/15 03:48:20;;;;;;;21.77;16.30;;;15.90;99.90;;;;;;5066707;28;20873;-67
2021/08/15 03:50:47;;;;;;;24.73;17.47;;;15.80;99.90;;;;;;5070805;28;20963;-68
2021/08/15 03:53:14;;;;;;;21.80;15.30;;;15.90;99.90;;;;;;5073069;28;20482;-67
2021/08/15 03:55:40;;;;;;;27.40;17.03;;;15.80;99.90;;;;;;5073275;28;20930;-67
2021/08/15 03:58:07;;;;;;;20.60;15.40;;;15.80;99.90;;;;;;5073250;28;20439;-68
2021/08/15 04:00:39;;;;;;;17.33;14.17;;;15.80;99.90;;;;;;5053631;28;20448;-65
2021/08/15 04:03:08;;;;;;;17.60;15.67;;;15.90;99.90;;;;;;5053032;28;20444;-68
2021/08/15 04:05:34;;;;;;;18.97;15.07;;;15.90;99.90;;;;;;5054204;28;20503;-66
2021/08/15 04:08:01;;;;;;;20.47;15.53;;;15.90;99.90;;;;;;5053133;28;20794;-67
2021/08/15 04:10:28;;;;;;;20.50;16.00;;;15.90;99.90;;;;;;5060997;28;20439;-67
2021/08/15 04:12:54;;;;;;;25.07;16.77;;;15.80;99.90;;;;;;5059319;28;20894;-66
2021/08/15 04:15:21;;;;;;;25.40;15.37;;;15.80;99.90;;;;;;5056487;28;20883;-67
2021/08/15 04:17:48;;;;;;;20.37;13.73;;;15.80;99.90;;;;;;5056606;28;20448;-67
2021/08/15 04:20:16;;;;;;;25.73;15.40;;;15.90;99.90;;;;;;5069598;28;20443;-68
2021/08/15 04:22:42;;;;;;;18.80;13.87;;;15.80;99.90;;;;;;5063040;28;20449;-67
2021/08/15 04:25:10;;;;;;;17.70;13.57;;;15.80;99.90;;;;;;5061322;28;20463;-67
2021/08/15 04:27:37;;;;;;;22.77;15.70;;;15.80;99.90;;;;;;5054631;28;20447;-67
2021/08/15 04:30:04;;;;;;;24.07;14.90;;;15.80;99.90;;;;;;5072791;28;20451;-66
2021/08/15 04:32:31;;;;;;;20.90;13.70;;;15.80;99.90;;;;;;5062885;28;20480;-68
2021/08/15 04:34:57;;;;;;;16.03;13.33;;;15.90;99.90;;;;;;5059981;28;20463;-66
2021/08/15 04:37:25;;;;;;;16.83;15.13;;;15.90;99.90;;;;;;5072480;28;20458;-68
2021/08/15 04:39:53;;;;;;;17.17;15.40;;;15.90;99.90;;;;;;5071793;28;20443;-67
2021/08/15 04:42:19;;;;;;;17.47;15.57;;;15.90;99.90;;;;;;5057591;28;20444;-67
2021/08/15 04:44:46;;;;;;;19.07;13.80;;;16.00;99.90;;;;;;5052362;28;20468;-67
2021/08/15 04:47:13;;;;;;;21.60;14.43;;;16.00;99.90;;;;;;5052400;28;20452;-67
2021/08/15 04:49:40;;;;;;;17.30;12.70;;;16.00;99.90;;;;;;5054775;28;20444;-67
2021/08/15 04:52:07;;;;;;;19.13;14.30;;;16.10;99.90;;;;;;5051927;28;20450;-67
2021/08/15 04:54:35;;;;;;;21.03;15.50;;;16.10;99.90;;;;;;5052159;28;20466;-67
2021/08/15 04:57:02;;;;;;;17.57;14.97;;;16.20;99.90;;;;;;5055845;28;20950;-67
2021/08/15 04:59:28;;;;;;;16.90;13.93;;;16.30;99.90;;;;;;5072052;28;20443;-65
2021/08/15 05:01:55;;;;;;;16.10;12.70;;;16.40;99.90;;;;;;5072036;28;20447;-66
2021/08/15 05:04:22;;;;;;;17.03;11.97;;;16.50;99.90;;;;;;5071883;28;20980;-67
2021/08/15 05:06:49;;;;;;;16.33;13.33;;;16.60;99.90;;;;;;5065970;28;20448;-68
2021/08/15 05:09:15;;;;;;;17.30;13.30;;;16.60;99.90;;;;;;5056515;28;20465;-67
2021/08/15 05:11:43;;;;;;;18.70;13.30;;;16.60;99.90;;;;;;5071676;28;20443;-67
2021/08/15 05:14:10;;;;;;;17.90;13.63;;;16.70;99.90;;;;;;5072194;28;20490;-65
2021/08/15 05:16:37;;;;;;;16.50;12.37;;;16.80;99.90;;;;;;5071854;28;20451;-64
2021/08/15 05:19:04;;;;;;;16.77;12.83;;;16.90;99.90;;;;;;5066766;28;20545;-65
2021/08/15 05:21:30;;;;;;;16.00;12.27;;;17.00;99.90;;;;;;5051627;28;20444;-65
2021/08/15 05:23:58;;;;;;;16.13;11.20;;;17.10;99.90;;;;;;5051748;28;20472;-65
2021/08/15 05:26:24;;;;;;;13.70;12.30;;;17.20;99.90;;;;;;5052732;28;20826;-66
2021/08/15 05:28:52;;;;;;;13.80;12.13;;;17.30;99.90;;;;;;5069435;28;20451;-64
2021/08/15 05:31:19;;;;;;;16.63;12.50;;;17.30;99.90;;;;;;5071714;28;20518;-65
2021/08/15 05:33:46;;;;;;;15.73;12.60;;;17.40;99.90;;;;;;5071472;28;20479;-67
2021/08/15 05:36:12;;;;;;;15.27;11.33;;;17.40;99.90;;;;;;5069993;28;20450;-65
2021/08/15 05:38:39;;;;;;;14.57;12.00;;;17.40;99.90;;;;;;5061007;28;20812;-64
2021/08/15 05:41:06;;;;;;;17.80;12.77;;;17.50;99.90;;;;;;5068079;28;20451;-64
2021/08/15 05:43:33;;;;;;;14.97;13.13;;;17.60;99.90;;;;;;5052504;28;20448;-66
2021/08/15 05:46:01;;;;;;;15.40;12.07;;;17.60;99.90;;;;;;5063697;28;20447;-66
2021/08/15 05:48:27;;;;;;;17.37;14.50;;;17.70;99.90;;;;;;5064027;28;20447;-65
2021/08/15 05:50:54;;;;;;;13.40;12.10;;;17.70;99.90;;;;;;5065089;28;20442;-66
2021/08/15 05:53:21;;;;;;;13.50;12.30;;;17.70;99.90;;;;;;5075750;28;20502;-66
2021/08/15 05:55:48;;;;;;;15.83;11.87;;;17.80;99.90;;;;;;5075548;28;20839;-65
2021/08/15 05:58:14;;;;;;;17.90;15.10;;;17.90;99.90;;;;;;5061389;28;20517;-65
2021/08/15 06:00:41;;;;;;;14.20;12.70;;;17.90;99.90;;;;;;5062663;28;20447;-67
2021/08/15 06:03:09;;;;;;;15.83;12.03;;;17.90;99.90;;;;;;5064498;28;20440;-65
2021/08/15 06:05:38;;;;;;;19.57;11.67;;;18.00;99.90;;;;;;5069499;28;20478;-65
2021/08/15 06:08:06;;;;;;;16.97;12.10;;;18.10;99.90;;;;;;5055754;28;20447;-67
2021/08/15 06:10:33;;;;;;;13.57;12.13;;;18.20;99.90;;;;;;5057131;28;20456;-66
2021/08/15 06:12:59;;;;;;;14.10;11.80;;;18.30;99.90;;;;;;5056546;28;20726;-65
2021/08/15 06:15:26;;;;;;;14.07;12.67;;;18.50;99.90;;;;;;5056304;28;20471;-66
2021/08/15 06:17:53;;;;;;;13.53;12.10;;;18.60;99.90;;;;;;5055233;28;20864;-65
2021/08/15 06:20:21;;;;;;;14.20;12.73;;;18.80;99.90;;;;;;5055284;28;20963;-65
2021/08/15 06:22:48;;;;;;;18.10;15.27;;;19.00;99.90;;;;;;5054853;28;21016;-65
2021/08/15 06:25:16;;;;;;;13.97;12.20;;;19.10;99.90;;;;;;5065461;28;20470;-65
2021/08/15 06:27:44;;;;;;;14.83;12.07;;;19.30;99.90;;;;;;5068835;28;20534;-65
2021/08/15 06:30:12;;;;;;;14.10;12.60;;;19.50;99.90;;;;;;5073335;28;20832;-65
2021/08/15 06:32:45;;;;;;;15.33;12.57;;;19.70;99.90;;;;;;5074647;28;20443;-66
2021/08/15 06:35:12;;;;;;;14.07;12.73;;;19.80;99.90;;;;;;5074885;28;20482;-66
2021/08/15 06:37:40;;;;;;;14.73;13.30;;;19.80;99.90;;;;;;5059316;28;20451;-64
2021/08/15 06:40:07;;;;;;;14.40;12.50;;;19.90;99.90;;;;;;5054848;28;20447;-65
2021/08/15 06:42:34;;;;;;;14.13;12.90;;;20.00;99.90;;;;;;5054548;28;20443;-64
2021/08/15 06:45:01;;;;;;;14.40;13.20;;;20.10;99.90;;;;;;5054929;28;20463;-64
2021/08/15 06:47:28;;;;;;;14.63;13.20;;;20.30;99.90;;;;;;5054622;28;20452;-65
2021/08/15 06:49:54;;;;;;;16.03;14.13;;;20.40;99.90;;;;;;5058126;28;20455;-65
2021/08/15 06:52:21;;;;;;;14.97;13.87;;;20.50;99.90;;;;;;5054079;28;20490;-64
2021/08/15 06:54:49;;;;;;;16.03;14.63;;;20.60;99.90;;;;;;5053847;28;20487;-66
2021/08/15 06:57:16;;;;;;;15.80;14.50;;;20.80;99.90;;;;;;5054226;28;20447;-66
2021/08/15 06:59:44;;;;;;;16.50;15.10;;;20.80;99.90;;;;;;5054161;28;20891;-66
2021/08/15 07:02:10;;;;;;;15.93;14.73;;;20.90;99.90;;;;;;5053360;28;20933;-65
2021/08/15 07:04:37;;;;;;;15.67;14.33;;;21.00;99.90;;;;;;5053959;28;20856;-64
2021/08/15 07:07:04;;;;;;;17.97;16.37;;;21.20;99.90;;;;;;5054084;28;20460;-63
2021/08/15 07:09:30;;;;;;;17.30;16.17;;;21.30;99.90;;;;;;5053892;28;20440;-66
2021/08/15 07:11:58;;;;;;;17.33;16.10;;;21.30;99.90;;;;;;5053594;28;20436;-65
2021/08/15 07:14:28;;;;;;;16.93;15.63;;;21.30;99.90;;;;;;5053752;28;20487;-65
2021/08/15 07:16:56;;;;;;;17.40;15.90;;;21.40;99.90;;;;;;5053783;28;20497;-65
2021/08/15 07:19:22;;;;;;;16.70;15.40;;;21.40;99.90;;;;;;5053857;28;20444;-67
2021/08/15 07:21:49;;;;;;;17.77;16.30;;;21.50;99.90;;;;;;5053386;28;20444;-65
2021/08/15 07:24:16;;;;;;;17.37;16.27;;;21.70;99.90;;;;;;5053593;28;20861;-65
2021/08/15 07:26:43;;;;;;;17.53;16.43;;;21.70;99.90;;;;;;5053666;28;20486;-67
2021/08/15 07:29:11;;;;;;;18.57;16.77;;;21.70;99.90;;;;;;5053533;28;20490;-65
2021/08/15 07:31:38;;;;;;;17.70;16.40;;;22.00;99.90;;;;;;5053463;28;20447;-65
2021/08/15 07:34:04;;;;;;;20.73;18.93;;;22.10;99.90;;;;;;5052809;28;20814;-66
2021/08/15 07:36:31;;;;;;;16.53;15.53;;;22.10;99.90;;;;;;5053276;28;20444;-64
2021/08/15 07:38:57;;;;;;;18.57;17.20;;;22.20;99.90;;;;;;5053671;28;20478;-65
2021/08/15 07:41:24;;;;;;;17.83;16.77;;;22.30;99.90;;;;;;5053142;28;20451;-67
2021/08/15 07:43:51;;;;;;;19.33;17.83;;;22.30;99.90;;;;;;5053143;28;20460;-66
2021/08/15 07:46:19;;;;;;;19.13;17.53;;;22.30;99.90;;;;;;5053656;28;20948;-67
2021/08/15 07:48:45;;;;;;;19.40;18.00;;;22.20;99.90;;;;;;5053453;28;20498;-65
2021/08/15 07:51:12;;;;;;;18.57;17.20;;;22.30;99.90;;;;;;5053305;28;20809;-66
2021/08/15 07:53:39;;;;;;;16.93;15.73;;;22.30;99.90;;;;;;5053036;28;20480;-66
2021/08/15 07:56:05;;;;;;;18.90;17.40;;;22.40;99.90;;;;;;5052765;28;20498;-66
2021/08/15 07:58:32;;;;;;;19.70;18.30;;;22.30;99.90;;;;;;5052783;28;20934;-67
2021/08/15 08:00:59;;;;;;;18.73;17.53;;;22.40;99.90;;;;;;5052544;28;20987;-65
2021/08/15 08:03:27;;;;;;;18.90;17.60;;;22.60;99.90;;;;;;5052781;28;20520;-66
2021/08/15 08:05:54;;;;;;;17.43;16.23;;;22.60;99.90;;;;;;5053210;28;20474;-65
2021/08/15 08:08:21;;;;;;;17.13;15.73;;;22.70;99.90;;;;;;5053180;28;20444;-68
2021/08/15 08:10:49;;;;;;;20.23;18.37;;;22.90;99.90;;;;;;5052721;28;20448;-66
2021/08/15 08:13:17;;;;;;;16.00;15.00;;;23.10;99.90;;;;;;5053051;28;20487;-66
2021/08/15 08:15:43;;;;;;;17.80;16.30;;;23.40;99.90;;;;;;5051876;28;20460;-66
2021/08/15 08:18:10;;;;;;;17.83;16.63;;;23.80;99.90;;;;;;5053131;28;20448;-65
2021/08/15 08:20:40;;;;;;;17.00;15.80;;;24.10;99.90;;;;;;5052943;28;20467;-66
2021/08/15 08:23:09;;;;;;;15.97;15.17;;;24.60;99.90;;;;;;5052243;28;20436;-65
2021/08/15 08:25:36;;;;;;;18.50;17.13;;;25.10;99.90;;;;;;5052624;28;20471;-68
2021/08/15 08:28:03;;;;;;;18.53;16.97;;;25.30;99.90;;;;;;5052587;28;20487;-66
2021/08/15 08:30:30;;;;;;;21.30;20.10;;;25.70;99.90;;;;;;5052462;28;20875;-67
2021/08/15 08:32:57;;;;;;;19.67;18.33;;;26.00;99.90;;;;;;5052665;28;20448;-64
2021/08/15 08:35:24;;;;;;;19.00;17.80;;;26.00;99.90;;;;;;5052415;28;20491;-66
2021/08/15 08:37:52;;;;;;;19.53;18.33;;;26.10;99.90;;;;;;5052152;28;20452;-65
2021/08/15 08:40:20;;;;;;;18.73;17.63;;;26.30;99.90;;;;;;5052504;28;20471;-65
2021/08/15 08:42:48;;;;;;;19.83;18.53;;;26.40;99.90;;;;;;5052137;28;20451;-64
2021/08/15 08:45:20;;;;;;;19.70;18.50;;;26.60;99.90;;;;;;5052304;28;20464;-65
2021/08/15 08:47:47;;;;;;;19.77;18.63;;;26.70;99.90;;;;;;5052437;28;20446;-67
2021/08/15 08:50:14;;;;;;;20.37;19.17;;;26.90;99.90;;;;;;5052304;28;20447;-66
2021/08/15 08:52:42;;;;;;;18.87;17.80;;;26.90;99.90;;;;;;5051871;28;20448;-65
2021/08/15 08:55:11;;;;;;;19.60;18.40;;;26.80;99.90;;;;;;5051989;28;20488;-65
2021/08/15 08:57:38;;;;;;;19.27;18.07;;;26.90;99.90;;;;;;5052045;28;20810;-63
2021/08/15 09:00:06;;;;;;;18.27;17.27;;;26.90;99.90;;;;;;5052078;28;20448;-64
2021/08/15 09:02:36;;;;;;;19.20;18.00;;;26.90;99.80;;;;;;5051700;28;20449;-66
2021/08/15 09:05:03;;;;;;;19.40;18.23;;;26.70;99.80;;;;;;5051746;28;20485;-67
2021/08/15 09:07:35;;;;;;;18.37;17.37;;;26.50;99.90;;;;;;5052072;28;20451;-64
2021/08/15 09:10:02;;;;;;;18.00;16.90;;;26.50;99.90;;;;;;5052032;28;20497;-64
2021/08/15 09:12:39;;;;;;;16.97;15.97;;;26.50;99.90;;;;;;5051783;28;20499;-64
2021/08/15 09:15:08;;;;;;;16.70;15.90;;;26.50;99.90;;;;;;5051453;28;20484;-65
2021/08/15 09:17:36;;;;;;;17.53;16.57;;;26.70;99.90;;;;;;5051990;28;20444;-61
2021/08/15 09:20:05;;;;;;;17.77;16.77;;;26.60;99.70;;;;;;5051726;28;20448;-62
2021/08/15 09:22:35;;;;;;;17.20;16.30;;;26.90;99.30;;;;;;5051478;28;20444;-66
2021/08/15 09:25:05;;;;;;;18.23;17.20;;;27.00;98.20;;;;;;5051630;28;21011;-64
2021/08/15 09:27:33;;;;;;;17.73;16.93;;;27.20;97.80;;;;;;5051438;28;20460;-64
2021/08/15 09:30:17;;;;;;;17.77;16.80;;;27.40;97.20;;;;;;5051479;28;20451;-67
2021/08/15 09:32:46;;;;;;;16.87;16.00;;;27.40;97.60;;;;;;5051366;28;20444;-64
2021/08/15 09:35:27;;;;;;;18.10;17.10;;;27.40;97.20;;;;;;5051549;28;20569;-64
2021/08/15 09:38:02;;;;;;;17.27;16.47;;;27.30;96.80;;;;;;5051620;28;20454;-64
2021/08/15 09:40:33;;;;;;;17.73;16.80;;;26.90;96.80;;;;;;5067251;28;20448;-65
2021/08/15 09:43:00;;;;;;;19.57;18.47;;;26.70;97.50;;;;;;5051466;28;20570;-63
2021/08/15 09:45:40;;;;;;;17.53;16.73;;;26.60;97.90;;;;;;5051507;28;20535;-66
2021/08/15 09:48:29;;;;;;;17.20;16.37;;;26.60;98.10;;;;;;5051422;28;20447;-64
2021/08/15 09:51:07;;;;;;;16.23;15.53;;;26.60;97.80;;;;;;5051339;28;20443;-65
2021/08/15 09:53:35;;;;;;;17.27;16.03;;;26.70;98.00;;;;;;5063744;28;20788;-63
2021/08/15 09:56:04;;;;;;;16.27;15.47;;;26.80;98.00;;;;;;5071275;28;20945;-65
2021/08/15 09:58:32;;;;;;;17.60;16.60;;;26.80;97.50;;;;;;5069990;28;20526;-63
2021/08/15 10:01:04;;;;;;;17.17;16.10;;;27.00;97.10;;;;;;5071059;28;20991;-63
2021/08/15 10:03:33;;;;;;;17.10;16.40;;;27.20;97.50;;;;;;5071038;28;20783;-65
2021/08/15 10:06:00;;;;;;;19.03;17.90;;;27.40;97.20;;;;;;5071009;28;20538;-66
2021/08/15 10:08:29;;;;;;;17.30;16.40;;;27.80;97.00;;;;;;5052355;28;20961;-64
2021/08/15 10:10:56;;;;;;;17.70;16.70;;;28.10;94.90;;;;;;5071131;28;20924;-66
2021/08/15 10:13:23;;;;;;;17.27;16.17;;;28.10;95.50;;;;;;5071088;28;20526;-66
2021/08/15 10:16:06;;;;;;;15.13;14.43;;;28.20;94.20;;;;;;5068312;28;20487;-64
2021/08/15 10:18:38;;;;;;;15.33;14.63;;;28.40;93.50;;;;;;5059590;28;20439;-64
2021/08/15 10:21:12;;;;;;;17.47;16.53;;;28.60;92.10;;;;;;5070740;28;20443;-64
2021/08/15 10:23:42;;;;;;;26.83;16.73;;;28.50;91.90;;;;;;5071015;28;20446;-64
2021/08/15 10:26:47;;;;;;;16.13;15.43;;;28.70;92.80;;;;;;5071134;28;20444;-65
2021/08/15 10:29:33;;;;;;;15.37;14.43;;;29.00;92.10;;;;;;5071135;28;20929;-64
2021/08/15 10:32:16;;;;;;;16.10;15.10;;;29.20;91.30;;;;;;5070390;28;20450;-64
2021/08/15 10:35:17;;;;;;;17.80;17.00;;;29.60;91.40;;;;;;5070063;28;20493;-65
2021/08/15 10:37:46;;;;;;;16.87;15.97;;;30.10;75.50;;;;;;5071875;28;20438;-64
2021/08/15 10:40:47;;;;;;;18.53;17.63;;;30.60;71.10;;;;;;5074906;28;20461;-64
2021/08/15 10:43:15;;;;;;;16.47;15.67;;;31.00;69.60;;;;;;5074564;28;20812;-64
2021/08/15 10:45:43;;;;;;;17.30;16.50;;;31.30;65.70;;;;;;5074580;28;20458;-65
2021/08/15 10:48:24;;;;;;;17.67;16.77;;;31.10;63.20;;;;;;5060605;28;20796;-65
2021/08/15 10:50:53;;;;;;;16.70;16.00;;;30.90;59.00;;;;;;5054969;28;20455;-64
2021/08/15 10:53:39;;;;;;;17.97;17.07;;;31.20;58.60;;;;;;5074313;28;20947;-65
2021/08/15 10:56:08;;;;;;;18.97;18.07;;;31.90;58.90;;;;;;5074352;28;20528;-65
2021/08/15 10:58:38;;;;;;;16.53;15.73;;;32.00;56.90;;;;;;5074425;28;20808;-63
2021/08/15 11:01:06;;;;;;;17.20;16.50;;;32.00;55.90;;;;;;5071603;28;20451;-65
2021/08/15 11:03:53;;;;;;;17.43;16.73;;;31.70;53.60;;;;;;5054676;28;20451;-65
2021/08/15 11:06:41;;;;;;;17.67;16.87;;;31.20;55.20;;;;;;5061855;28;20457;-65
2021/08/15 11:09:09;;;;;;;17.90;17.10;;;31.30;53.50;;;;;;5062407;28;20448;-65
2021/08/15 11:11:37;;;;;;;19.20;18.33;;;31.70;52.10;;;;;;5065188;28;20449;-63
2021/08/15 11:14:28;;;;;;;17.80;17.00;;;32.00;52.00;;;;;;5065544;28;20563;-66
2021/08/15 11:17:12;;;;;;;17.50;16.70;;;32.10;51.20;;;;;;5062146;28;20471;-66
2021/08/15 11:19:41;;;;;;;18.10;17.40;;;32.50;49.10;;;;;;5062124;28;20454;-65
2021/08/15 11:22:24;;;;;;;17.30;16.60;;;32.80;47.70;;;;;;5061933;28;21055;-65
2021/08/15 11:24:55;;;;;;;18.30;17.40;;;32.50;47.90;;;;;;5065167;28;21054;-66
2021/08/15 11:27:34;;;;;;;17.90;17.13;;;32.10;47.30;;;;;;5067186;28;20454;-65
2021/08/15 11:30:08;;;;;;;18.37;17.60;;;31.60;49.00;;;;;;5065213;28;20454;-66
2021/08/15 11:32:35;;;;;;;18.37;17.47;;;31.30;50.00;;;;;;5061491;28;20450;-66
2021/08/15 11:35:06;;;;;;;18.83;18.03;;;31.40;51.20;;;;;;5061404;28;20475;-66
2021/08/15 11:37:35;;;;;;;17.73;16.93;;;32.30;50.90;;;;;;5064156;28;20485;-66
2021/08/15 11:40:17;;;;;;;18.50;17.60;;;32.70;50.00;;;;;;5064589;28;20446;-66
2021/08/15 11:42:45;;;;;;;19.87;18.80;;;33.20;49.50;;;;;;5061257;28;20443;-66
2021/08/15 11:45:12;;;;;;;19.20;18.20;;;34.60;47.10;;;;;;5062139;28;21068;-66
2021/08/15 11:47:40;;;;;;;18.77;17.97;;;35.10;46.20;;;;;;5064658;28;20442;-66
2021/08/15 11:50:18;;;;;;;20.40;18.92;;;36.40;45.50;;;;;;5062844;28;20983;-67
2021/08/15 11:52:46;;;;;;;18.00;17.20;;;35.70;42.40;;;;;;5064369;28;20230;-66
2021/08/15 11:55:24;;;;;;;20.07;19.07;;;34.90;42.70;;;;;;5057295;28;20659;-66
2021/08/15 11:57:52;;;;;;;19.10;18.13;;;35.60;44.50;;;;;;5064994;28;20197;-66
2021/08/15 12:00:29;;;;;;;17.92;17.10;;;35.80;42.60;;;;;;5063064;28;20197;-66
2021/08/15 12:03:08;;;;;;;20.50;19.33;;;35.60;42.80;;;;;;5064781;28;20207;-67
2021/08/15 12:05:41;;;;;;;18.95;18.15;;;38.20;41.30;;;;;;5060892;28;20220;-67
2021/08/15 12:08:10;;;;;;;20.17;19.08;;;40.90;37.00;;;;;;5061184;28;20192;-66
2021/08/15 12:10:42;;;;;;;20.15;18.85;;;42.10;33.20;;;;;;5060962;28;20193;-67
2021/08/15 12:13:17;;;;;;;18.77;18.08;;;42.40;32.30;;;;;;5060932;28;20208;-67
2021/08/15 12:15:45;;;;;;;19.98;19.17;;;44.00;30.00;;;;;;5060100;28;20244;-67
2021/08/15 12:18:38;;;;;;;19.75;19.05;;;44.10;29.80;;;;;;5061588;28;20220;-67
2021/08/15 12:21:19;;;;;;;19.60;18.80;;;44.70;29.30;;;;;;5063546;28;20653;-65
2021/08/15 12:24:01;;;;;;;18.83;18.02;;;45.10;28.40;;;;;;5052345;28;20229;-67
2021/08/15 12:26:29;;;;;;;19.25;18.45;;;44.30;28.10;;;;;;5054304;28;20276;-65
2021/08/15 12:28:57;;;;;;;20.00;19.20;;;44.30;27.50;;;;;;5061781;28;20208;-67
2021/08/15 12:31:25;;;;;;;18.88;18.17;;;43.70;27.30;;;;;;5062914;28;20209;-67
2021/08/15 12:34:08;;;;;;;18.88;18.08;;;43.40;28.00;;;;;;5063975;28;20224;-67
2021/08/15 12:36:49;;;;;;;19.65;18.48;;;42.80;28.60;;;;;;5060275;28;20213;-67
2021/08/15 12:39:16;;;;;;;18.98;18.17;;;41.30;29.90;;;;;;5061819;28;20663;-67